• Join FlightAware (Why Join?)
  • Login
  • US Flag 
12:15PM EDT


 

Airport Tracker/Info


-or-


 

Live Flight TrackerFlight Track Log ✈ UAL1001 ✈ 20-May-2013 ✈ KIAD - KLAX

Flight Track Log - Related Links

Times and Time Zones

All times are in EDT time to prevent confusion due to time zone crossing. See the UAL1001 flight status page for this flight to view local times or setup timezone preferences in your user account.

Time Position Orientation Groundspeed Altitude Reporting Facility
EDT Latitude Longitude Course Direction KTS MPH feet Rate Location/Type
07:42PM 38.8833 -77.4500 235° Southwest 203 234 2,300  Level Potomac TRACON
07:43PM 38.8167 -77.4667 191° South 230 265 4,400 2,100 Climbing Potomac TRACON
07:44PM 38.5986 -77.6539 197° South  Level FlightAware Approximate
07:45PM 38.4994 -77.7343 230° Southwest  Level FlightAware Approximate
07:45PM 38.6803 -77.5783 213° Southwest 277 319 9,100  Level Washington Center
07:46PM 38.4229 -77.8599 234° Southwest  Level FlightAware Approximate
07:46PM 38.6083 -77.6400 214° Southwest 300 345 11,100  Level Washington Center
07:47PM 38.3585 -77.9930 235° Southwest  Level FlightAware Approximate
07:47PM 38.5319 -77.7097 216° Southwest 323 372 12,400  Level Washington Center
07:48PM 38.4633 -77.8111 229° Southwest 358 412 14,400 1,980 Climbing Washington Center
07:49PM 38.4028 -77.9283 237° Southwest 387 445 16,400 1,920 Climbing Washington Center
07:50PM 38.3319 -78.0375 230° Southwest 399 459 18,300 1,860 Climbing Washington Center
07:51PM 38.2525 -78.1433 226° Southwest 410 472 20,200 1,860 Climbing Washington Center
07:52PM 38.1689 -78.2461 224° Southwest 415 478 22,100 1,680 Climbing Washington Center
07:53PM 38.0792 -78.3431 220° Southwest 422 486 23,600 1,200 Climbing Washington Center
07:54PM 38.0019 -78.4325 222° Southwest 428 493 24,600 1,020 Climbing Washington Center
07:55PM 37.9181 -78.5425 226° Southwest 422 486 25,700 1,080 Climbing Washington Center
07:56PM 37.8497 -78.6897 240° Southwest 453 521 26,800 1,080 Climbing Washington Center
07:57PM 37.7978 -78.8350 246° West 453 521 27,900 900 Climbing Washington Center
07:58PM 37.7458 -78.9772 245° Southwest 448 516 28,700 1,020 Climbing Washington Center
07:59PM 37.6939 -79.1192 245° Southwest 448 516 30,000 1,080 Climbing Washington Center
08:00PM 37.6417 -79.2636 245° Southwest 455 524 30,900 960 Climbing Washington Center
08:01PM 37.5869 -79.4050 244° Southwest 455 524 31,900 900 Climbing Washington Center
08:02PM 37.5344 -79.5439 245° Southwest 455 524 32,700 780 Climbing Washington Center
08:03PM 37.4839 -79.6853 246° West 450 518 33,500 600 Climbing Washington Center
08:04PM 37.4336 -79.8133 244° Southwest 459 528 34,000 240 Climbing Washington Center
08:05PM 37.3847 -79.9544 246° West 453 521 34,000  Level Washington Center
08:06PM 37.3811 -80.1058 268° West 433 498 34,000  Level Washington Center
08:07PM 37.3625 -80.2692 262° West 433 498 34,000  Level Washington Center
08:07PM 37.3269 -80.3486 241° Southwest 415 478 34,000  Level Atlanta Center
08:08PM 37.2619 -80.4767 237° Southwest 430 495 34,000  Level Atlanta Center
08:09PM 37.1989 -80.6047 238° Southwest 435 501 34,000  Level Atlanta Center
08:10PM 37.1414 -80.7192 238° Southwest 441 507 34,000  Level Atlanta Center
08:11PM 37.0739 -80.8469 237° Southwest 441 507 34,000  Level Atlanta Center
08:12PM 37.0083 -80.9717 237° Southwest 441 507 34,000  Level Atlanta Center
08:13PM 36.9428 -81.0989 237° Southwest 441 507 34,000  Level Atlanta Center
08:14PM 36.8708 -81.2339 236° Southwest 441 507 34,000  Level Atlanta Center
08:15PM 36.8069 -81.3631 238° Southwest 441 507 34,000  Level Atlanta Center
08:16PM 36.7531 -81.4711 238° Southwest 441 507 34,000  Level Atlanta Center
08:17PM 36.6867 -81.5925 236° Southwest 432 497 34,000  Level Atlanta Center
08:18PM 36.6203 -81.7211 237° Southwest 437 503 34,000  Level Atlanta Center
08:19PM 36.5539 -81.8447 236° Southwest 437 503 34,000  Level Atlanta Center
08:20PM 36.4892 -81.9678 237° Southwest 437 503 34,000  Level Atlanta Center
08:21PM 36.4225 -82.0908 236° Southwest 437 503 34,000  Level Atlanta Center
08:22PM 36.3575 -82.2133 237° Southwest 437 503 34,000  Level Atlanta Center
08:23PM 36.2906 -82.3336 235° Southwest 437 503 34,000  Level Atlanta Center
08:24PM 36.2253 -82.4558 237° Southwest 437 503 34,000  Level Atlanta Center
08:25PM 36.1600 -82.5781 237° Southwest 432 497 34,000  Level Atlanta Center
08:26PM 36.0947 -82.7000 237° Southwest 432 497 34,000  Level Atlanta Center
08:27PM 36.0211 -82.8322 235° Southwest 432 497 34,000  Level Atlanta Center
08:28PM 35.9533 -82.9536 235° Southwest 427 491 34,000  Level Atlanta Center
08:29PM 35.8875 -83.0775 237° Southwest 427 491 34,000  Level Atlanta Center
08:30PM 35.8217 -83.1961 236° Southwest 427 491 34,000  Level Atlanta Center
08:31PM 35.7619 -83.3069 236° Southwest 427 491 34,000  Level Atlanta Center
08:32PM 35.6981 -83.4250 236° Southwest 427 491 34,000  Level Atlanta Center
08:33PM 35.6297 -83.5481 236° Southwest 427 491 34,000  Level Atlanta Center
08:34PM 35.5633 -83.6686 236° Southwest 427 491 34,000  Level Atlanta Center
08:35PM 35.4947 -83.7914 236° Southwest 432 497 34,000  Level Atlanta Center
08:36PM 35.4200 -83.9214 235° Southwest 432 497 34,000  Level Atlanta Center
08:37PM 35.3511 -84.0414 235° Southwest 432 497 34,000  Level Atlanta Center
08:38PM 35.2822 -84.1658 236° Southwest 432 497 34,000  Level Atlanta Center
08:39PM 35.2131 -84.2853 235° Southwest 437 503 34,000  Level Atlanta Center
08:40PM 35.1419 -84.4069 234° Southwest 442 509 34,000  Level Atlanta Center
08:41PM 35.0725 -84.5286 235° Southwest 442 509 34,000  Level Atlanta Center
08:42PM 35.0033 -84.6500 235° Southwest 447 514 34,000  Level Atlanta Center
08:43PM 34.9336 -84.7761 236° Southwest 447 514 34,000  Level Atlanta Center
08:44PM 34.8639 -84.8969 235° Southwest 447 514 34,000  Level Atlanta Center
08:45PM 34.7922 -85.0175 234° Southwest 447 514 34,000  Level Atlanta Center
08:46PM 34.7203 -85.1406 235° Southwest 447 514 34,000  Level Atlanta Center
08:47PM 34.6503 -85.2608 235° Southwest 447 514 34,000  Level Atlanta Center
08:48PM 34.5800 -85.3836 235° Southwest 447 514 34,000  Level Atlanta Center
08:49PM 34.5078 -85.5033 234° Southwest 447 514 34,000  Level Atlanta Center
08:50PM 34.4372 -85.6256 235° Southwest 447 514 34,000  Level Atlanta Center
08:51PM 34.3775 -85.7328 233° Southwest 447 514 34,000  Level Atlanta Center
08:52PM 34.3651 -85.7410 233° Southwest  Level FlightAware Approximate
08:52PM 34.3028 -85.8494 232° Southwest 437 503 34,000  Level Atlanta Center
08:53PM 34.2322 -85.9658 234° Southwest 437 503 34,000  Level Atlanta Center
08:54PM 34.1614 -86.0872 235° Southwest 437 503 34,000  Level Atlanta Center
08:55PM 34.0903 -86.2036 234° Southwest 442 509 34,000  Level Atlanta Center
08:56PM 34.0172 -86.3244 234° Southwest 447 514 34,000  Level Atlanta Center
08:57PM 33.9461 -86.4428 234° Southwest 447 514 34,000  Level Atlanta Center
08:58PM 33.8728 -86.5633 234° Southwest 447 514 34,000  Level Atlanta Center
08:59PM 33.8014 -86.6836 234° Southwest 447 514 34,000  Level Atlanta Center
09:00PM 33.7214 -86.8111 233° Southwest 447 514 34,000  Level Atlanta Center
09:02PM 33.6561 -87.0156 249° West 427 491 34,000  Level Memphis Center
09:03PM 33.6389 -87.1611 262° West 434 499 34,000  Level Memphis Center
09:04PM 33.6219 -87.3189 263° West 434 499 34,000  Level Memphis Center
09:05PM 33.6067 -87.4639 263° West 439 505 34,000  Level Memphis Center
09:06PM 33.5892 -87.6092 262° West 444 511 34,000  Level Memphis Center
09:07PM 33.5733 -87.7519 262° West 444 511 34,000  Level Memphis Center
09:08PM 33.5575 -87.8969 263° West 444 511 34,000  Level Memphis Center
09:09PM 33.5394 -88.0419 262° West 444 511 34,000  Level Memphis Center
09:10PM 33.5211 -88.1819 261° West 444 511 34,000  Level Memphis Center
09:11PM 33.5111 -88.3217 265° West 439 505 34,000  Level Memphis Center
09:12PM 33.4944 -88.4642 262° West 439 505 34,000  Level Memphis Center
09:13PM 33.4883 -88.6036 267° West 429 494 34,000  Level Memphis Center
09:14PM 33.4839 -88.7458 268° West 429 494 34,000  Level Memphis Center
09:15PM 33.4833 -88.8753 270° West 429 494 34,000  Level Memphis Center
09:16PM 33.4831 -89.0172 270° West 429 494 34,000  Level Memphis Center
09:17PM 33.4822 -89.1592 270° West 429 494 34,000  Level Memphis Center
09:18PM 33.4794 -89.3036 269° West 429 494 34,000  Level Memphis Center
09:19PM 33.4764 -89.4483 269° West 429 494 34,000  Level Memphis Center
09:20PM 33.4753 -89.5925 270° West 434 499 34,000  Level Memphis Center
09:21PM 33.4739 -89.7347 269° West 434 499 34,000  Level Memphis Center
09:22PM 33.4706 -89.8767 268° West 434 499 34,000  Level Memphis Center
09:23PM 33.4689 -90.0186 269° West 434 499 34,000  Level Memphis Center
09:24PM 33.4650 -90.1756 268° West 439 505 34,000  Level Memphis Center
09:25PM 33.4569 -90.3197 266° West 439 505 34,000  Level Memphis Center
09:26PM 33.4297 -90.4592 257° West 439 505 34,000  Level Memphis Center
09:27PM 33.4064 -90.6011 259° West 444 511 34,000  Level Memphis Center
09:28PM 33.3792 -90.7378 257° West 439 505 34,000  Level Memphis Center
09:29PM 33.3536 -90.8744 257° West 433 498 34,000  Level Memphis Center
09:30PM 33.3278 -91.0136 258° West 428 493 34,000  Level Memphis Center
09:31PM 33.3019 -91.1550 258° West 434 499 34,000  Level Memphis Center
09:32PM 33.2781 -91.2942 258° West 434 499 34,000  Level Memphis Center
09:33PM 33.2497 -91.4353 257° West 434 499 34,000  Level Memphis Center
09:35PM 33.2044 -91.6542 256° West 417 480 34,000  Level Fort Worth Center
09:36PM 33.1897 -91.7889 263° West 417 480 34,000  Level Fort Worth Center
09:37PM 33.1731 -91.9292 262° West 417 480 34,000  Level Fort Worth Center
09:38PM 33.1667 -92.0708 267° West 423 487 34,000  Level Fort Worth Center
09:39PM 33.1578 -92.2078 266° West 428 493 34,000  Level Fort Worth Center
09:40PM 33.1467 -92.3450 265° West 422 486 34,000  Level Fort Worth Center
09:41PM 33.1375 -92.4819 265° West 427 491 34,000  Level Fort Worth Center
09:42PM 33.1283 -92.6211 266° West 427 491 34,000  Level Fort Worth Center
09:43PM 33.1208 -92.7556 266° West 427 491 34,000  Level Fort Worth Center
09:44PM 33.1133 -92.8947 266° West 427 491 34,000  Level Fort Worth Center
09:45PM 33.1033 -93.0267 265° West 422 486 34,000  Level Fort Worth Center
09:47PM 33.0863 -93.2728 265° West  Level FlightAware Approximate
09:48PM 33.0769 -93.4247 265° West 405 466 34,000  Level Fort Worth Center
09:49PM 33.0686 -93.5539 266° West 405 466 34,000  Level Fort Worth Center
09:50PM 33.0578 -93.6858 264° West 405 466 34,000  Level Fort Worth Center
09:51PM 33.0506 -93.7925 265° West 410 472 34,000  Level Fort Worth Center
09:52PM 33.0400 -93.9392 265° West 410 472 34,000  Level Fort Worth Center
09:53PM 33.0292 -94.0733 265° West 410 472 34,000  Level Fort Worth Center
09:54PM 33.0222 -94.2075 267° West 410 472 34,000  Level Fort Worth Center
09:55PM 33.0108 -94.3417 264° West 410 472 34,000 180 Level Fort Worth Center
09:56PM 33.0017 -94.4756 265° West 410 472 34,400 420 Climbing Fort Worth Center
09:57PM 32.9922 -94.6122 265° West 410 472 34,900 600 Climbing Fort Worth Center
09:58PM 32.9806 -94.7439 264° West 410 472 35,700 540 Climbing Fort Worth Center
09:59PM 32.9686 -94.8803 264° West 410 472 36,000 120 Climbing Fort Worth Center
10:00PM 32.9586 -95.0119 265° West 410 472 36,000  Level Fort Worth Center
10:01PM 32.9467 -95.1508 264° West 410 472 36,000  Level Fort Worth Center
10:02PM 32.9364 -95.2847 265° West 410 472 36,000  Level Fort Worth Center
10:03PM 32.9283 -95.4161 266° West 405 466 36,000  Level Fort Worth Center
10:04PM 32.9178 -95.5500 265° West 405 466 36,000  Level Fort Worth Center
10:05PM 32.9050 -95.6814 263° West 405 466 36,000  Level Fort Worth Center
10:06PM 32.8881 -95.8128 261° West 405 466 36,000  Level Fort Worth Center
10:07PM 32.8581 -95.9369 254° West 405 466 36,000  Level Fort Worth Center
10:08PM 32.8242 -96.0611 252° West 405 466 36,000  Level Fort Worth Center
10:09PM 32.7939 -96.1878 254° West 400 460 36,000  Level Fort Worth Center
10:10PM 32.7617 -96.3092 253° West 400 460 36,000  Level Fort Worth Center
10:11PM 32.7294 -96.4331 253° West 400 460 36,000  Level Fort Worth Center
10:12PM 32.6969 -96.5592 253° West 400 460 36,000  Level Fort Worth Center
10:13PM 32.6683 -96.6828 255° West 400 460 36,000  Level Fort Worth Center
10:14PM 32.6358 -96.8089 253° West 400 460 36,000  Level Fort Worth Center
10:15PM 32.6133 -96.9300 258° West 395 455 36,000  Level Fort Worth Center
10:16PM 32.6053 -97.0558 266° West 390 449 36,000  Level Fort Worth Center
10:17PM 32.6014 -97.1939 268° West 390 449 36,000  Level Fort Worth Center
10:18PM 32.5975 -97.3172 268° West 384 442 36,000  Level Fort Worth Center
10:19PM 32.5933 -97.4456 268° West 384 442 36,000  Level Fort Worth Center
10:20PM 32.5889 -97.5664 268° West 384 442 36,000  Level Fort Worth Center
10:21PM 32.5847 -97.6894 268° West 379 436 36,000  Level Fort Worth Center
10:22PM 32.5822 -97.8128 269° West 379 436 36,000  Level Fort Worth Center
10:23PM 32.5756 -97.9386 266° West 384 442 36,000  Level Fort Worth Center
10:24PM 32.5708 -98.0617 267° West 384 442 36,000  Level Fort Worth Center
10:25PM 32.5658 -98.1875 267° West 384 442 36,000  Level Fort Worth Center
10:26PM 32.5608 -98.3131 267° West 384 442 36,000  Level Fort Worth Center
10:27PM 32.5536 -98.4436 266° West 384 442 36,000  Level Fort Worth Center
10:28PM 32.5461 -98.5644 266° West 384 442 36,000  Level Fort Worth Center
10:29PM 32.5428 -98.6925 268° West 384 442 36,000  Level Fort Worth Center
10:30PM 32.5353 -98.8231 266° West 391 450 36,000  Level Fort Worth Center
10:31PM 32.5294 -98.9533 267° West 391 450 36,000  Level Fort Worth Center
10:32PM 32.5217 -99.0839 266° West 391 450 36,000  Level Fort Worth Center
10:33PM 32.5158 -99.2069 267° West 391 450 36,000  Level Fort Worth Center
10:34PM 32.5075 -99.3350 266° West 391 450 36,000  Level Fort Worth Center
10:35PM 32.5014 -99.4653 267° West 391 450 36,000  Level Fort Worth Center
10:36PM 32.4950 -99.5933 267° West 391 450 36,000  Level Fort Worth Center
10:37PM 32.4844 -99.7161 264° West 386 444 36,000  Level Fort Worth Center
10:38PM 32.4778 -99.8464 267° West 386 444 36,000  Level Fort Worth Center
10:39PM 32.4756 -99.9597 269° West 386 444 36,000  Level Fort Worth Center
10:40PM 32.4917 -100.0881 278° West 386 444 36,000  Level Fort Worth Center
10:41PM 32.5097 -100.2119 280° West 386 444 36,000  Level Fort Worth Center
10:42PM 32.5256 -100.3406 278° West 391 450 36,000  Level Fort Worth Center
10:43PM 32.5414 -100.4642 279° West 391 450 36,000  Level Fort Worth Center
10:44PM 32.5572 -100.5906 278° West 391 450 36,000  Level Fort Worth Center
10:45PM 32.5747 -100.7192 279° West 391 450 36,000  Level Fort Worth Center
10:46PM 32.5900 -100.8456 278° West 391 450 36,000  Level Fort Worth Center
10:47PM 32.6053 -100.9744 278° West 391 450 36,000  Level Fort Worth Center
10:48PM 32.6183 -101.1031 277° West 391 450 36,000  Level Fort Worth Center
10:49PM 32.6375 -101.2272 280° West 391 450 36,000  Level Fort Worth Center
10:50PM 32.6503 -101.3561 277° West 391 450 36,000  Level Fort Worth Center
10:51PM 32.6672 -101.4828 279° West 391 450 36,000  Level Fort Worth Center
10:52PM 32.6817 -101.6117 278° West 391 450 36,000  Level Fort Worth Center
10:53PM 32.6942 -101.7356 277° West 391 450 36,000  Level Fort Worth Center
10:54PM 32.7083 -101.8647 277° West 391 450 36,000  Level Fort Worth Center
10:55PM 32.7247 -101.9914 279° West 391 450 36,000  Level Fort Worth Center
10:56PM 32.7389 -102.1181 278° West 391 450 36,000  Level Fort Worth Center
10:57PM 32.7547 -102.2497 278° West 391 450 36,000  Level Fort Worth Center
10:58PM 32.7706 -102.3742 279° West 391 450 36,000  Level Fort Worth Center
10:59PM 32.7856 -102.5208 277° West 397 457 36,000  Level Fort Worth Center
11:00PM 32.7972 -102.6475 276° West 397 457 36,000  Level Fort Worth Center
11:01PM 32.8106 -102.7742 277° West 391 450 36,000  Level Fort Worth Center
11:02PM 32.8239 -102.9011 277° West 391 450 36,000  Level Fort Worth Center
11:03PM 32.8372 -103.0256 277° West 391 450 36,000  Level Fort Worth Center
11:04PM 32.8503 -103.1525 277° West 391 450 36,000  Level Fort Worth Center
11:05PM 32.8611 -103.2792 276° West 391 450 36,000  Level Fort Worth Center
11:06PM 32.8689 -103.3767 275° West 385 443 36,000  Level Albuquerque Center
11:07PM 32.8811 -103.5017 277° West 383 441 36,000  Level Albuquerque Center
11:08PM 32.8942 -103.6308 277° West 391 450 36,000  Level Albuquerque Center
11:09PM 32.9114 -103.7772 278° West 386 444 36,000  Level Albuquerque Center
11:10PM 32.9244 -103.9158 276° West 390 449 36,000  Level Albuquerque Center
11:11PM 32.9361 -104.0447 276° West 390 449 36,000  Level Albuquerque Center
11:12PM 32.9478 -104.1719 276° West 388 447 36,000  Level Albuquerque Center
11:13PM 32.9594 -104.3006 276° West 390 449 36,000  Level Albuquerque Center
11:14PM 32.9708 -104.4392 276° West 390 449 36,000  Level Albuquerque Center
11:15PM 32.9825 -104.5667 276° West 389 448 36,000  Level Albuquerque Center
11:16PM 32.9933 -104.6933 276° West 385 443 36,000  Level Albuquerque Center
11:17PM 33.0044 -104.8189 276° West 381 438 36,000  Level Albuquerque Center
11:18PM 33.0169 -104.9542 276° West 381 438 36,000  Level Albuquerque Center
11:19PM 33.0269 -105.0797 275° West 381 438 36,000  Level Albuquerque Center
11:20PM 33.0378 -105.2058 276° West 383 441 36,000  Level Albuquerque Center
11:21PM 33.0492 -105.3433 276° West 386 444 36,000  Level Albuquerque Center
11:22PM 33.0608 -105.4714 276° West 387 445 36,000  Level Albuquerque Center
11:23PM 33.0722 -105.6031 276° West 398 458 36,000  Level Albuquerque Center
11:24PM 33.0856 -105.7336 277° West 399 459 36,000 -60 Level Albuquerque Center
11:25PM 33.0958 -105.8597 276° West 393 452 35,900 -60 Descending Albuquerque Center
11:26PM 33.1053 -105.9828 275° West 385 443 35,900  Level Albuquerque Center
11:27PM 33.1153 -106.1078 275° West 381 438 36,000  Climbing Albuquerque Center
11:28PM 33.1239 -106.2339 275° West 382 440 35,900  Descending Albuquerque Center
11:29PM 33.1325 -106.3603 275° West 383 441 36,000  Climbing Albuquerque Center
11:30PM 33.1444 -106.5114 275° West 383 441 35,900  Descending Albuquerque Center
11:31PM 33.1531 -106.6372 275° West 384 442 36,000  Climbing Albuquerque Center
11:32PM 33.1614 -106.7650 274° West 385 443 35,900 -60 Descending Albuquerque Center
11:33PM 33.1708 -106.8931 275° West 389 448 35,900  Level Albuquerque Center
11:34PM 33.1808 -107.0208 275° West 389 448 35,900  Level Albuquerque Center
11:35PM 33.1892 -107.1469 275° West 386 444 36,000  Climbing Albuquerque Center
11:36PM 33.1975 -107.2761 274° West 389 448 36,000 -60 Level Albuquerque Center
11:37PM 33.2061 -107.4056 275° West 391 450 35,900  Descending Albuquerque Center
11:38PM 33.2167 -107.5642 275° West 397 457 36,000  Climbing Albuquerque Center
11:39PM 33.2242 -107.6956 274° West 398 458 35,900  Descending Albuquerque Center
11:40PM 33.2328 -107.8297 274° West 402 463 36,000  Climbing Albuquerque Center
11:41PM 33.2408 -107.9625 274° West 403 464 35,900 -60 Descending Albuquerque Center
11:42PM 33.2531 -108.0908 277° West 398 458 35,900  Level Albuquerque Center
11:43PM 33.2606 -108.2183 274° West 393 452 36,000  Climbing Albuquerque Center
11:44PM 33.2700 -108.3753 274° West 397 457 36,000  Level Albuquerque Center
11:45PM 33.2775 -108.5056 274° West 398 458 36,000  Level Albuquerque Center
11:46PM 33.2853 -108.6317 274° West 390 449 36,000  Level Albuquerque Center
11:48PM 33.2922 -108.7594 274° West 390 449 36,000  Level Albuquerque Center
11:49PM 33.2989 -108.8867 274° West 391 450 36,000  Level Albuquerque Center
11:50PM 33.3072 -109.0392 274° West 391 450 36,000  Level Albuquerque Center
11:51PM 33.3139 -109.1653 274° West 389 448 36,000  Level Albuquerque Center
11:52PM 33.3206 -109.2917 274° West 388 447 36,000  Level Albuquerque Center
11:53PM 33.3261 -109.4183 273° West 387 445 36,000  Level Albuquerque Center
11:54PM 33.3328 -109.5456 274° West 389 448 36,000  Level Albuquerque Center
11:55PM 33.3400 -109.6731 274° West 390 449 36,000  Level Albuquerque Center
11:56PM 33.3461 -109.8281 273° West 393 452 36,000  Level Albuquerque Center
11:57PM 33.3525 -109.9572 273° West 393 452 36,000  Level Albuquerque Center
11:58PM 33.3586 -110.0864 273° West 393 452 36,000  Level Albuquerque Center
11:59PM 33.3650 -110.2167 273° West 395 455 36,000  Level Albuquerque Center
12:00AM 33.3703 -110.3461 273° West 395 455 36,000  Level Albuquerque Center
12:01AM 33.3786 -110.4769 274° West 397 457 36,000  Level Albuquerque Center
12:02AM 33.3842 -110.6047 273° West 391 450 36,000  Level Albuquerque Center
12:03AM 33.3892 -110.7392 273° West 392 451 36,000  Level Albuquerque Center
12:04AM 33.3956 -110.8675 273° West 388 447 36,000  Level Albuquerque Center
12:05AM 33.4003 -110.9961 273° West 387 445 36,000  Level Albuquerque Center
12:06AM 33.4033 -111.1269 272° West 390 449 36,000  Level Albuquerque Center
12:07AM 33.4078 -111.2544 272° West 384 442 36,000  Level Albuquerque Center
12:08AM 33.4128 -111.4081 272° West 384 442 36,000  Level Albuquerque Center
12:09AM 33.4172 -111.5364 272° West 385 443 36,000  Level Albuquerque Center
12:10AM 33.4211 -111.6647 272° West 385 443 36,000  Level Albuquerque Center
12:11AM 33.4264 -111.7933 273° West 385 443 36,000  Level Albuquerque Center
12:12AM 33.4297 -111.9214 272° West 385 443 36,000  Level Albuquerque Center
12:13AM 33.4339 -112.0497 272° West 385 443 36,000  Level Albuquerque Center
12:14AM 33.4367 -112.1783 272° West 385 443 36,000  Level Albuquerque Center
12:15AM 33.4400 -112.3086 272° West 388 447 36,000  Level Albuquerque Center
12:16AM 33.4442 -112.4367 272° West 386 444 36,000  Level Albuquerque Center
12:17AM 33.4472 -112.5661 272° West 388 447 36,000 -60 Level Albuquerque Center
12:18AM 33.4514 -112.7003 272° West 387 445 35,900  Descending Albuquerque Center
12:19AM 33.4578 -112.8303 273° West 391 450 36,000  Climbing Albuquerque Center
12:20AM 33.4975 -112.9467 292° West 380 437 36,000  Level Albuquerque Center
12:21AM 33.5400 -113.0639 294° West 383 441 36,000  Level Albuquerque Center
12:22AM 33.5819 -113.1822 293° West 386 444 36,000  Level Albuquerque Center
12:23AM 33.6231 -113.3000 293° West 385 443 36,000  Level Albuquerque Center
12:24AM 33.6719 -113.4383 293° West 383 441 36,000  Level Albuquerque Center
12:25AM 33.7142 -113.5578 293° West 386 444 36,000  Level Albuquerque Center
12:26AM 33.7553 -113.6778 292° West 388 447 36,000  Level Albuquerque Center
12:27AM 33.7975 -113.7986 293° West 391 450 36,000  Level Albuquerque Center
12:28AM 33.8100 -113.9289 277° West 395 455 36,000  Level Albuquerque Center
12:29AM 33.8156 -114.0622 273° West 398 458 36,000  Level Albuquerque Center
12:30AM 33.8225 -114.1944 274° West 398 458 36,000 -60 Level Albuquerque Center
12:31AM 33.8347 -114.3283 276° West 399 459 35,900  Descending Albuquerque Center
12:32AM 33.8400 -114.3953 275° West 396 456 36,000  Climbing Los Angeles Center
12:33AM 33.8475 -114.5528 273° West 394 453 35,900  Descending Los Angeles Center
12:34AM 33.8547 -114.6853 274° West 397 457 36,000  Climbing Los Angeles Center
12:35AM 33.8611 -114.8181 273° West 399 459 36,000  Level Los Angeles Center
12:36AM 33.8675 -114.9511 273° West 399 459 36,000 -60 Level Los Angeles Center
12:37AM 33.8744 -115.0847 274° West 401 461 35,900 -60 Descending Los Angeles Center
12:38AM 33.8808 -115.2183 273° West 402 463 35,900  Level Los Angeles Center
12:39AM 33.8869 -115.3508 273° West 400 460 36,000  Climbing Los Angeles Center
12:40AM 33.8919 -115.4831 273° West 397 457 36,000 -60 Level Los Angeles Center
12:41AM 33.9006 -115.6694 273° West 399 459 35,900 -60 Descending Los Angeles Center
12:42AM 33.9064 -115.8011 273° West 399 459 35,900 -60 Level Los Angeles Center
12:43AM 33.9117 -115.9347 273° West 400 460 35,800 -540 Descending Los Angeles Center
12:44AM 33.9172 -116.0683 273° West 400 460 34,800 -1,020 Descending Los Angeles Center
12:45AM 33.9225 -116.2033 273° West 406 467 33,800 -1,920 Descending Los Angeles Center
12:46AM 33.9275 -116.3394 273° West 408 470 31,000 -2,940 Descending Los Angeles Center
12:47AM 33.9325 -116.4761 273° West 410 472 27,900 -2,760 Descending Los Angeles Center
12:48AM 33.9381 -116.6139 273° West 414 476 25,400 -2,640 Descending Los Angeles Center
12:49AM 33.9442 -116.7703 273° West 397 457 22,500 -2,580 Descending Los Angeles Center
12:50AM 33.9475 -116.8956 272° West 383 441 20,200 -2,280 Descending Los Angeles Center
12:51AM 33.9500 -116.9833 272° West 363 418 18,800 -1,980 Descending Southern California TRACON
12:52AM 33.9500 -117.1000 270° West 356 410 17,000 -900 Descending Southern California TRACON
12:53AM 33.9667 -117.2167 280° West 335 386 17,000 -600 Level Southern California TRACON
12:54AM 33.9833 -117.3167 281° West 311 358 15,800 -1,440 Descending Southern California TRACON
12:55AM 34.0000 -117.4167 281° West 303 349 14,200 -1,500 Descending Southern California TRACON
12:56AM 34.0000 -117.5167 270° West 290 334 12,800 -1,380 Descending Southern California TRACON
12:57AM 34.0167 -117.6000 284° West 343 395 11,600 -1,380 Descending Southern California TRACON
12:58AM 34.0167 -117.7000 270° West 276 318 10,200 -1,320 Descending Southern California TRACON
12:59AM 34.0167 -117.8000 270° West 272 313 8,900 -1,320 Descending Southern California TRACON
01:00AM 34.0000 -117.8833 256° West 282 325 7,500 -1,260 Descending Southern California TRACON
01:01AM 34.0000 -117.9833 270° West 268 308 6,300 -1,080 Descending Southern California TRACON
01:02AM 33.9833 -118.0667 256° West 243 280 5,400 -960 Descending Southern California TRACON
01:03AM 33.9833 -118.1333 270° West 208 239 4,500 -960 Descending Southern California TRACON
01:04AM 33.9767 -118.1714 258° West 201 231 3,900 -900 Descending Los Angeles Center
01:05AM 33.9708 -118.2236 262° West 169 194 3,100 -840 Descending Los Angeles Center
01:06AM 33.9658 -118.2758 263° West 160 184 2,200 -900 Descending Los Angeles Center
01:07AM 33.9597 -118.3289 262° West 161 185 1,300 -900 Descending Los Angeles Center